^^
Paulen-Weather Station Historical Data
Daily Summary for April 24, 2022 Units:  Metric    English   Both
Daily Weekly Monthly Yearly Custom
  High: Low: Average:
Temperature: 10 °C 7 °C 8.4 °C
Dew Point: 5 °C -2 °C 2.2 °C
Humidity: 77% 50% 65%
Wind Speed: 45km/h 19km/h 33.5km/h
Wind Gust: 41km/h - -
Wind- - NE
Pressure: 1018.93 hPa 1017.24 hPa -
Precipitation: 0 mm    
Historical Graphs
 
 
Tabular Data for April 24, 2022
Time Temperature Dew Point Pressure Wind Wind Speed Wind Gust Humidity Rainfall Rate (Hourly) solar
00:04 10 °C 5 °C 1018.39 hPa NE 31 km/h 25 km/h 68% 0 mm 0 W/m2
00:09 10 °C 5 °C 1018.39 hPa NE 31 km/h 24 km/h 69% 0 mm 0 W/m2
00:14 10 °C 5 °C 1018.42 hPa NE 34 km/h 28 km/h 68% 0 mm 0 W/m2
00:19 10 °C 5 °C 1018.42 hPa NE 31 km/h 26 km/h 68% 0 mm 0 W/m2
00:24 10 °C 4 °C 1018.42 hPa NE 29 km/h 26 km/h 67% 0 mm 0 W/m2
00:29 10 °C 4 °C 1018.46 hPa NE 36 km/h 27 km/h 66% 0 mm 0 W/m2
00:34 10 °C 4 °C 1018.46 hPa NE 33 km/h 28 km/h 66% 0 mm 0 W/m2
00:39 10 °C 4 °C 1018.42 hPa NNE 35 km/h 29 km/h 64% 0 mm 0 W/m2
00:44 10 °C 4 °C 1018.42 hPa NE 31 km/h 29 km/h 65% 0 mm 0 W/m2
00:49 10 °C 4 °C 1018.42 hPa NE 32 km/h 28 km/h 64% 0 mm 0 W/m2
00:54 10 °C 4 °C 1018.52 hPa NE 33 km/h 27 km/h 65% 0 mm 0 W/m2
00:59 10 °C 4 °C 1018.56 hPa NE 37 km/h 34 km/h 64% 0 mm 0 W/m2
01:04 10 °C 4 °C 1018.56 hPa NE 34 km/h 27 km/h 66% 0 mm 0 W/m2
01:09 10 °C 4 °C 1018.63 hPa NNE 38 km/h 34 km/h 65% 0 mm 0 W/m2
01:14 10 °C 4 °C 1018.63 hPa NE 38 km/h 34 km/h 65% 0 mm 0 W/m2
01:19 10 °C 4 °C 1018.63 hPa NE 34 km/h 29 km/h 66% 0 mm 0 W/m2
01:24 10 °C 4 °C 1018.66 hPa NNE 37 km/h 30 km/h 66% 0 mm 0 W/m2
01:29 10 °C 4 °C 1018.69 hPa NE 44 km/h 41 km/h 64% 0 mm 0 W/m2
01:34 10 °C 4 °C 1018.66 hPa NE 38 km/h 33 km/h 64% 0 mm 0 W/m2
01:39 10 °C 3 °C 1018.69 hPa NNE 42 km/h 37 km/h 64% 0 mm 0 W/m2
01:44 10 °C 3 °C 1018.69 hPa NE 41 km/h 35 km/h 63% 0 mm 0 W/m2
01:49 10 °C 3 °C 1018.66 hPa NE 40 km/h 32 km/h 64% 0 mm 0 W/m2
01:54 10 °C 4 °C 1018.66 hPa NE 39 km/h 34 km/h 65% 0 mm 0 W/m2
01:59 10 °C 4 °C 1018.66 hPa NE 40 km/h 33 km/h 66% 0 mm 0 W/m2
02:04 10 °C 4 °C 1018.69 hPa NE 35 km/h 29 km/h 66% 0 mm 0 W/m2
02:09 10 °C 4 °C 1018.69 hPa NE 40 km/h 33 km/h 68% 0 mm 0 W/m2
02:14 9 °C 4 °C 1018.76 hPa NE 38 km/h 33 km/h 69% 0 mm 0 W/m2
02:19 9 °C 4 °C 1018.73 hPa NE 37 km/h 34 km/h 70% 0 mm 0 W/m2
02:24 9 °C 4 °C 1018.73 hPa NE 36 km/h 31 km/h 70% 0 mm 0 W/m2
02:29 9 °C 4 °C 1018.83 hPa NE 33 km/h 32 km/h 71% 0 mm 0 W/m2
02:34 9 °C 4 °C 1018.8 hPa NE 31 km/h 28 km/h 71% 0 mm 0 W/m2
02:39 9 °C 4 °C 1018.8 hPa NE 33 km/h 30 km/h 72% 0 mm 0 W/m2
02:44 9 °C 4 °C 1018.76 hPa NE 34 km/h 29 km/h 71% 0 mm 0 W/m2
02:49 9 °C 4 °C 1018.76 hPa NE 33 km/h 32 km/h 71% 0 mm 0 W/m2
02:54 9 °C 4 °C 1018.76 hPa NE 38 km/h 32 km/h 71% 0 mm 0 W/m2
02:59 9 °C 4 °C 1018.73 hPa NE 36 km/h 30 km/h 71% 0 mm 0 W/m2
03:04 9 °C 4 °C 1018.76 hPa NE 37 km/h 34 km/h 70% 0 mm 0 W/m2
03:09 9 °C 4 °C 1018.83 hPa NE 37 km/h 33 km/h 69% 0 mm 0 W/m2
03:14 9 °C 3 °C 1018.8 hPa NE 36 km/h 31 km/h 69% 0 mm 0 W/m2
03:19 9 °C 3 °C 1018.8 hPa NE 38 km/h 32 km/h 68% 0 mm 0 W/m2
03:24 9 °C 3 °C 1018.8 hPa NE 40 km/h 36 km/h 68% 0 mm 0 W/m2
03:29 9 °C 3 °C 1018.83 hPa NE 40 km/h 32 km/h 68% 0 mm 0 W/m2
03:34 9 °C 3 °C 1018.8 hPa NE 39 km/h 32 km/h 68% 0 mm 0 W/m2
03:39 9 °C 3 °C 1018.76 hPa NE 41 km/h 35 km/h 67% 0 mm 0 W/m2
03:44 8 °C 3 °C 1018.86 hPa NE 35 km/h 30 km/h 68% 0 mm 0 W/m2
03:49 8 °C 2 °C 1018.83 hPa NE 41 km/h 35 km/h 66% 0 mm 0 W/m2
03:54 8 °C 3 °C 1018.83 hPa NE 39 km/h 33 km/h 66% 0 mm 0 W/m2
03:59 8 °C 3 °C 1018.83 hPa NE 36 km/h 30 km/h 66% 0 mm 0 W/m2
04:04 8 °C 3 °C 1018.9 hPa NE 35 km/h 32 km/h 67% 0 mm 0 W/m2
04:09 8 °C 3 °C 1018.86 hPa NE 33 km/h 32 km/h 68% 0 mm 0 W/m2
04:14 8 °C 3 °C 1018.86 hPa NE 33 km/h 28 km/h 67% 0 mm 0 W/m2
04:19 8 °C 3 °C 1018.9 hPa NE 33 km/h 30 km/h 68% 0 mm 0 W/m2
04:24 8 °C 3 °C 1018.93 hPa NE 35 km/h 29 km/h 67% 0 mm 0 W/m2
04:29 8 °C 2 °C 1018.93 hPa NE 33 km/h 25 km/h 67% 0 mm 0 W/m2
04:34 8 °C 3 °C 1018.8 hPa NE 28 km/h 24 km/h 67% 0 mm 0 W/m2
04:39 8 °C 2 °C 1018.76 hPa NNE 30 km/h 27 km/h 67% 0 mm 0 W/m2
04:44 8 °C 2 °C 1018.8 hPa NE 31 km/h 27 km/h 67% 0 mm 0 W/m2
04:49 8 °C 2 °C 1018.8 hPa NE 31 km/h 25 km/h 67% 0 mm 0 W/m2
04:54 8 °C 2 °C 1018.76 hPa NE 27 km/h 25 km/h 66% 0 mm 0 W/m2
04:59 8 °C 2 °C 1018.73 hPa NE 31 km/h 25 km/h 66% 0 mm 0 W/m2
05:04 8 °C 2 °C 1018.73 hPa NE 27 km/h 24 km/h 66% 0 mm 0 W/m2
05:09 8 °C 2 °C 1018.69 hPa NE 28 km/h 23 km/h 65% 0 mm 0 W/m2
05:14 8 °C 2 °C 1018.66 hPa NE 29 km/h 28 km/h 65% 0 mm 0 W/m2
05:19 8 °C 2 °C 1018.56 hPa NE 29 km/h 27 km/h 65% 0 mm 0 W/m2
05:24 8 °C 2 °C 1018.56 hPa NE 28 km/h 23 km/h 65% 0 mm 0 W/m2
05:29 8 °C 1 °C 1018.56 hPa NE 27 km/h 23 km/h 64% 0 mm 0 W/m2
05:34 8 °C 1 °C 1018.56 hPa NE 30 km/h 25 km/h 63% 0 mm 0 W/m2
05:39 8 °C 1 °C 1018.59 hPa NE 28 km/h 23 km/h 63% 0 mm 0 W/m2
05:44 8 °C 1 °C 1018.63 hPa NE 24 km/h 22 km/h 63% 0 mm 0 W/m2
05:49 7 °C 1 °C 1018.63 hPa NE 23 km/h 20 km/h 63% 0 mm 5 W/m2
05:54 7 °C 1 °C 1018.66 hPa NE 24 km/h 21 km/h 62% 0 mm 7 W/m2
05:59 7 °C 0 °C 1018.63 hPa NE 24 km/h 20 km/h 61% 0 mm 9 W/m2
06:04 7 °C 0 °C 1018.63 hPa NE 24 km/h 22 km/h 60% 0 mm 11 W/m2
06:09 7 °C 0 °C 1018.63 hPa NE 23 km/h 19 km/h 60% 0 mm 19 W/m2
06:14 7 °C 0 °C 1018.63 hPa NE 24 km/h 22 km/h 59% 0 mm 25 W/m2
06:19 7 °C 0 °C 1018.56 hPa NE 23 km/h 21 km/h 59% 0 mm 32 W/m2
06:24 7 °C 0 °C 1018.59 hPa NE 23 km/h 21 km/h 59% 0 mm 37 W/m2
06:29 7 °C 0 °C 1018.63 hPa NE 22 km/h 20 km/h 59% 0 mm 46 W/m2
06:34 7 °C 0 °C 1018.63 hPa NE 21 km/h 19 km/h 59% 0 mm 58 W/m2
06:39 7 °C 0 °C 1018.66 hPa NE 25 km/h 23 km/h 58% 0 mm 67 W/m2
06:44 7 °C -1 °C 1018.69 hPa NE 32 km/h 28 km/h 56% 0 mm 77 W/m2
06:49 7 °C -1 °C 1018.66 hPa NE 30 km/h 26 km/h 56% 0 mm 86 W/m2
06:54 7 °C -1 °C 1018.59 hPa NE 34 km/h 31 km/h 55% 0 mm 95 W/m2
06:59 7 °C -1 °C 1018.59 hPa NNE 29 km/h 29 km/h 55% 0 mm 105 W/m2
07:04 7 °C -1 °C 1018.63 hPa NE 35 km/h 30 km/h 53% 0 mm 114 W/m2
07:09 7 °C -1 °C 1018.52 hPa NE 32 km/h 28 km/h 54% 0 mm 125 W/m2
07:14 7 °C -1 °C 1018.52 hPa NE 32 km/h 29 km/h 54% 0 mm 135 W/m2
07:19 7 °C -2 °C 1018.52 hPa NE 35 km/h 33 km/h 53% 0 mm 146 W/m2
07:24 7 °C -2 °C 1018.52 hPa NE 33 km/h 26 km/h 52% 0 mm 156 W/m2
07:29 7 °C -2 °C 1018.49 hPa NE 33 km/h 28 km/h 52% 0 mm 169 W/m2
07:34 7 °C -2 °C 1018.49 hPa NE 32 km/h 28 km/h 51% 0 mm 183 W/m2
07:39 7 °C -1 °C 1018.49 hPa NE 27 km/h 24 km/h 53% 0 mm 211 W/m2
07:44 8 °C -1 °C 1018.56 hPa NE 27 km/h 23 km/h 53% 0 mm 218 W/m2
07:49 8 °C -2 °C 1018.56 hPa NE 28 km/h 24 km/h 51% 0 mm 229 W/m2
07:54 8 °C -2 °C 1018.56 hPa NE 31 km/h 28 km/h 51% 0 mm 246 W/m2
07:59 8 °C -2 °C 1018.49 hPa NE 33 km/h 33 km/h 51% 0 mm 262 W/m2
08:04 8 °C -2 °C 1018.46 hPa NE 33 km/h 28 km/h 51% 0 mm 313 W/m2
08:09 8 °C -2 °C 1018.49 hPa NNE 34 km/h 30 km/h 51% 0 mm 336 W/m2
08:14 8 °C -2 °C 1018.49 hPa NE 39 km/h 35 km/h 51% 0 mm 334 W/m2
08:19 8 °C -2 °C 1018.52 hPa NE 35 km/h 30 km/h 50% 0 mm 294 W/m2
08:24 8 °C -2 °C 1018.56 hPa NE 37 km/h 31 km/h 51% 0 mm 316 W/m2
08:29 8 °C -1 °C 1018.52 hPa NE 34 km/h 31 km/h 52% 0 mm 352 W/m2
08:34 8 °C -1 °C 1018.46 hPa NE 32 km/h 27 km/h 52% 0 mm 357 W/m2
08:39 8 °C -1 °C 1018.42 hPa NE 35 km/h 33 km/h 52% 0 mm 327 W/m2
08:44 8 °C -1 °C 1018.39 hPa NE 34 km/h 32 km/h 53% 0 mm 346 W/m2
08:49 8 °C -1 °C 1018.35 hPa NE 34 km/h 28 km/h 53% 0 mm 350 W/m2
08:54 8 °C -1 °C 1018.32 hPa NE 30 km/h 28 km/h 54% 0 mm 362 W/m2
08:59 8 °C -1 °C 1018.25 hPa NE 36 km/h 33 km/h 53% 0 mm 410 W/m2
09:04 8 °C -1 °C 1018.32 hPa NE 36 km/h 31 km/h 52% 0 mm 415 W/m2
09:09 8 °C -1 °C 1018.32 hPa NE 32 km/h 35 km/h 54% 0 mm 438 W/m2
09:14 8 °C 0 °C 1018.25 hPa NE 33 km/h 30 km/h 54% 0 mm 457 W/m2
09:19 8 °C -1 °C 1018.25 hPa NE 38 km/h 35 km/h 53% 0 mm 497 W/m2
09:24 8 °C -1 °C 1018.25 hPa NE 36 km/h 33 km/h 53% 0 mm 534 W/m2
09:29 8 °C 0 °C 1018.22 hPa NNE 41 km/h 34 km/h 54% 0 mm 529 W/m2
09:34 8 °C 0 °C 1018.15 hPa NNE 38 km/h 33 km/h 54% 0 mm 531 W/m2
09:39 8 °C 0 °C 1018.22 hPa NE 40 km/h 30 km/h 54% 0 mm 584 W/m2
09:44 8 °C 0 °C 1018.22 hPa NE 36 km/h 32 km/h 56% 0 mm 606 W/m2
09:49 8 °C 0 °C 1018.19 hPa NE 33 km/h 29 km/h 55% 0 mm 580 W/m2
09:54 8 °C 0 °C 1018.15 hPa NE 36 km/h 31 km/h 56% 0 mm 346 W/m2
09:59 8 °C 0 °C 1018.15 hPa NE 36 km/h 36 km/h 56% 0 mm 352 W/m2
10:04 8 °C 1 °C 1018.19 hPa NE 33 km/h 26 km/h 59% 0 mm 756 W/m2
10:09 9 °C 1 °C 1018.08 hPa NE 34 km/h 29 km/h 58% 0 mm 728 W/m2
10:14 9 °C 1 °C 1018.12 hPa NE 38 km/h 30 km/h 59% 0 mm 640 W/m2
10:19 9 °C 1 °C 1018.15 hPa NE 36 km/h 29 km/h 59% 0 mm 666 W/m2
10:24 8 °C 1 °C 1018.19 hPa NE 38 km/h 35 km/h 59% 0 mm 645 W/m2
10:29 8 °C 1 °C 1018.22 hPa NE 37 km/h 29 km/h 60% 0 mm 315 W/m2
10:34 8 °C 1 °C 1018.15 hPa NE 36 km/h 34 km/h 61% 0 mm 438 W/m2
10:39 8 °C 1 °C 1018.15 hPa NE 41 km/h 33 km/h 59% 0 mm 807 W/m2
10:44 8 °C 1 °C 1018.08 hPa NNE 36 km/h 33 km/h 60% 0 mm 793 W/m2
10:49 8 °C 1 °C 1018.12 hPa NE 38 km/h 33 km/h 61% 0 mm 478 W/m2
10:54 8 °C 1 °C 1018.08 hPa NE 39 km/h 36 km/h 61% 0 mm 376 W/m2
10:59 8 °C 1 °C 1018.15 hPa NE 42 km/h 39 km/h 61% 0 mm 399 W/m2
11:04 8 °C 2 °C 1018.12 hPa NE 45 km/h 40 km/h 62% 0 mm 450 W/m2
11:09 8 °C 2 °C 1018.19 hPa NE 38 km/h 33 km/h 64% 0 mm 404 W/m2
11:14 8 °C 2 °C 1018.12 hPa NNE 42 km/h 34 km/h 65% 0 mm 450 W/m2
11:19 8 °C 2 °C 1018.12 hPa NE 40 km/h 30 km/h 65% 0 mm 606 W/m2
11:24 9 °C 2 °C 1018.12 hPa NE 39 km/h 35 km/h 65% 0 mm 930 W/m2
11:29 8 °C 2 °C 1018.12 hPa NE 45 km/h 38 km/h 62% 0 mm 930 W/m2
11:34 8 °C 2 °C 1018.12 hPa NNE 44 km/h 38 km/h 63% 0 mm 995 W/m2
11:39 9 °C 2 °C 1018.15 hPa NE 38 km/h 33 km/h 64% 0 mm 995 W/m2
11:44 9 °C 2 °C 1018.15 hPa NE 40 km/h 33 km/h 65% 0 mm 995 W/m2
11:49 8 °C 2 °C 1018.12 hPa NE 41 km/h 38 km/h 65% 0 mm 954 W/m2
11:54 8 °C 3 °C 1018.12 hPa NE 41 km/h 33 km/h 66% 0 mm 954 W/m2
11:59 8 °C 3 °C 1018.12 hPa NE 37 km/h 32 km/h 66% 0 mm 584 W/m2
12:04 8 °C 2 °C 1018.15 hPa NE 45 km/h 39 km/h 66% 0 mm 427 W/m2
12:09 8 °C 3 °C 1018.22 hPa NE 36 km/h 33 km/h 68% 0 mm 427 W/m2
12:14 8 °C 3 °C 1018.22 hPa NE 42 km/h 32 km/h 68% 0 mm 399 W/m2
12:19 8 °C 2 °C 1018.19 hPa NE 42 km/h 33 km/h 67% 0 mm 492 W/m2
12:24 8 °C 2 °C 1018.22 hPa NE 38 km/h 34 km/h 66% 0 mm 541 W/m2
12:29 8 °C 3 °C 1018.22 hPa NE 40 km/h 38 km/h 67% 0 mm 541 W/m2
12:34 8 °C 3 °C 1018.22 hPa NNE 35 km/h 30 km/h 69% 0 mm 446 W/m2
12:39 8 °C 3 °C 1018.22 hPa N 35 km/h 30 km/h 70% 0 mm 489 W/m2
12:44 8 °C 3 °C 1018.19 hPa NE 33 km/h 26 km/h 70% 0 mm 489 W/m2
12:49 8 °C 3 °C 1018.22 hPa ENE 36 km/h 28 km/h 71% 0 mm 582 W/m2
12:54 8 °C 4 °C 1018.12 hPa ENE 39 km/h 31 km/h 72% 0 mm 679 W/m2
12:59 8 °C 3 °C 1018.08 hPa ENE 36 km/h 28 km/h 71% 0 mm 679 W/m2
13:04 8 °C 3 °C 1018.05 hPa ENE 39 km/h 32 km/h 71% 0 mm 315 W/m2
13:09 8 °C 3 °C 1018.02 hPa ENE 36 km/h 27 km/h 72% 0 mm 471 W/m2
13:14 8 °C 3 °C 1018.02 hPa ENE 32 km/h 29 km/h 72% 0 mm 944 W/m2
13:19 8 °C 3 °C 1018.08 hPa ENE 34 km/h 28 km/h 71% 0 mm 944 W/m2
13:24 8 °C 3 °C 1018.02 hPa ENE 35 km/h 30 km/h 72% 0 mm 476 W/m2
13:29 8 °C 4 °C 1018.05 hPa ENE 34 km/h 28 km/h 73% 0 mm 520 W/m2
13:34 8 °C 4 °C 1018.05 hPa ENE 32 km/h 25 km/h 73% 0 mm 508 W/m2
13:39 8 °C 4 °C 1018.02 hPa ENE 36 km/h 28 km/h 73% 0 mm 475 W/m2
13:44 8 °C 4 °C 1017.98 hPa ENE 32 km/h 25 km/h 73% 0 mm 394 W/m2
13:49 8 °C 4 °C 1017.95 hPa ENE 27 km/h 22 km/h 74% 0 mm 399 W/m2
13:54 8 °C 4 °C 1017.98 hPa ENE 32 km/h 25 km/h 74% 0 mm 385 W/m2
13:59 8 °C 4 °C 1017.91 hPa ENE 33 km/h 27 km/h 74% 0 mm 406 W/m2
14:04 8 °C 4 °C 1017.95 hPa ENE 37 km/h 30 km/h 74% 0 mm 438 W/m2
14:09 8 °C 4 °C 1017.91 hPa NE 36 km/h 30 km/h 75% 0 mm 543 W/m2
14:14 8 °C 4 °C 1017.95 hPa ENE 34 km/h 28 km/h 76% 0 mm 543 W/m2
14:19 8 °C 4 °C 1017.98 hPa ENE 38 km/h 30 km/h 77% 0 mm 526 W/m2
14:24 8 °C 4 °C 1017.98 hPa ENE 38 km/h 32 km/h 77% 0 mm 552 W/m2
14:29 8 °C 4 °C 1018.02 hPa ENE 39 km/h 32 km/h 77% 0 mm 601 W/m2
14:34 8 °C 4 °C 1017.98 hPa NE 39 km/h 36 km/h 76% 0 mm 490 W/m2
14:39 8 °C 4 °C 1018.02 hPa NE 40 km/h 37 km/h 76% 0 mm 519 W/m2
14:44 8 °C 4 °C 1017.98 hPa NE 39 km/h 36 km/h 76% 0 mm 594 W/m2
14:49 8 °C 4 °C 1018.05 hPa ENE 39 km/h 31 km/h 76% 0 mm 594 W/m2
14:54 8 °C 4 °C 1017.98 hPa ENE 35 km/h 29 km/h 76% 0 mm 499 W/m2
14:59 8 °C 4 °C 1017.95 hPa E 33 km/h 30 km/h 76% 0 mm 461 W/m2
15:04 8 °C 4 °C 1017.91 hPa ENE 33 km/h 26 km/h 76% 0 mm 501 W/m2
15:09 8 °C 4 °C 1017.95 hPa ENE 32 km/h 30 km/h 75% 0 mm 559 W/m2
15:19 8 °C 4 °C 1017.95 hPa ENE 32 km/h 28 km/h 75% 0 mm 316 W/m2
15:24 8 °C 4 °C 1017.91 hPa ENE 34 km/h 28 km/h 74% 0 mm 294 W/m2
15:29 8 °C 4 °C 1017.91 hPa ENE 35 km/h 28 km/h 74% 0 mm 258 W/m2
15:34 8 °C 4 °C 1017.91 hPa ENE 33 km/h 28 km/h 74% 0 mm 232 W/m2
15:39 8 °C 4 °C 1017.85 hPa E 28 km/h 24 km/h 75% 0 mm 232 W/m2
15:44 8 °C 4 °C 1017.75 hPa E 31 km/h 24 km/h 74% 0 mm 265 W/m2
15:49 8 °C 4 °C 1017.71 hPa ENE 31 km/h 25 km/h 74% 0 mm 313 W/m2
15:54 8 °C 4 °C 1017.61 hPa E 33 km/h 27 km/h 73% 0 mm 403 W/m2
15:59 8 °C 4 °C 1017.58 hPa ENE 29 km/h 27 km/h 73% 0 mm 320 W/m2
16:04 8 °C 4 °C 1017.58 hPa ENE 32 km/h 27 km/h 72% 0 mm 353 W/m2
16:09 8 °C 4 °C 1017.58 hPa E 29 km/h 26 km/h 72% 0 mm 336 W/m2
16:14 9 °C 4 °C 1017.58 hPa ENE 28 km/h 23 km/h 72% 0 mm 394 W/m2
16:19 9 °C 4 °C 1017.54 hPa E 29 km/h 23 km/h 72% 0 mm 341 W/m2
16:24 9 °C 4 °C 1017.54 hPa E 27 km/h 21 km/h 72% 0 mm 499 W/m2
16:29 9 °C 4 °C 1017.51 hPa ENE 28 km/h 21 km/h 71% 0 mm 772 W/m2
16:34 9 °C 4 °C 1017.51 hPa E 27 km/h 24 km/h 71% 0 mm 772 W/m2
16:39 9 °C 4 °C 1017.47 hPa ENE 26 km/h 20 km/h 71% 0 mm 385 W/m2
16:44 9 °C 4 °C 1017.44 hPa E 27 km/h 21 km/h 71% 0 mm 671 W/m2
16:49 9 °C 4 °C 1017.37 hPa E 28 km/h 23 km/h 71% 0 mm 656 W/m2
16:54 9 °C 4 °C 1017.37 hPa E 29 km/h 23 km/h 70% 0 mm 601 W/m2
16:59 9 °C 4 °C 1017.37 hPa E 25 km/h 22 km/h 70% 0 mm 568 W/m2
17:04 9 °C 4 °C 1017.37 hPa ENE 26 km/h 22 km/h 70% 0 mm 555 W/m2
17:09 9 °C 4 °C 1017.37 hPa E 29 km/h 24 km/h 69% 0 mm 527 W/m2
17:14 9 °C 4 °C 1017.41 hPa ENE 28 km/h 24 km/h 69% 0 mm 492 W/m2
17:19 9 °C 4 °C 1017.37 hPa ENE 26 km/h 23 km/h 68% 0 mm 462 W/m2
17:24 9 °C 4 °C 1017.37 hPa E 26 km/h 23 km/h 67% 0 mm 448 W/m2
17:29 9 °C 4 °C 1017.34 hPa E 24 km/h 22 km/h 66% 0 mm 431 W/m2
17:34 9 °C 3 °C 1017.37 hPa ENE 25 km/h 23 km/h 65% 0 mm 425 W/m2
17:39 10 °C 4 °C 1017.31 hPa E 26 km/h 20 km/h 66% 0 mm 420 W/m2
17:44 10 °C 3 °C 1017.31 hPa E 20 km/h 19 km/h 65% 0 mm 424 W/m2
17:49 10 °C 3 °C 1017.24 hPa E 23 km/h 19 km/h 63% 0 mm 434 W/m2
17:54 10 °C 3 °C 1017.24 hPa E 19 km/h 16 km/h 64% 0 mm 436 W/m2
17:59 10 °C 4 °C 1017.24 hPa E 21 km/h 17 km/h 64% 0 mm 410 W/m2
Compliments of Weather Underground - 2 mb